Time;durP1;ratioP1;P1;durP2;ratioP2;P2;SDS_P1;SDS_P2;PMS_P1;PMS_P2;Temp;Humidity;BMP_temperature;BMP_pressure;BME280_temperature;BME280_humidity;BME280_pressure;Samples;Min_cycle;Max_cycle;Signal;HPM_P1;HPM_P2
2023/03/21 00:01:36;;;;;;;13.85;4.05;;;10.20;99.90;;;;;;5035287;28;20124;-81
2023/03/21 00:04:03;;;;;;;14.43;3.63;;;10.20;99.90;;;;;;5034002;28;20357;-80
2023/03/21 00:06:31;;;;;;;19.02;3.80;;;10.30;99.90;;;;;;5017790;28;20091;-81
2023/03/21 00:08:57;;;;;;;14.07;3.88;;;10.30;99.90;;;;;;5034145;28;20060;-80
2023/03/21 00:11:24;;;;;;;11.30;4.07;;;10.30;99.90;;;;;;5035106;28;20045;-80
2023/03/21 00:13:52;;;;;;;13.93;4.18;;;10.30;99.90;;;;;;5033668;28;20045;-80
2023/03/21 00:16:19;;;;;;;10.43;3.92;;;10.30;99.90;;;;;;5016764;28;20476;-80
2023/03/21 00:18:51;;;;;;;11.63;4.35;;;10.30;99.90;;;;;;5018521;28;20432;-81
2023/03/21 00:21:18;;;;;;;11.68;4.20;;;10.30;99.90;;;;;;5034523;28;20041;-81
2023/03/21 00:24:05;;;;;;;13.57;3.92;;;10.30;99.90;;;;;;5003704;28;20044;-80
2023/03/21 00:26:32;;;;;;;13.35;4.55;;;10.30;99.90;;;;;;5033942;28;20128;-80
2023/03/21 00:28:59;;;;;;;15.98;4.57;;;10.30;99.90;;;;;;5016343;28;20056;-80
2023/03/21 00:31:26;;;;;;;20.45;4.80;;;10.30;99.90;;;;;;5017432;28;20041;-81
2023/03/21 00:33:52;;;;;;;19.05;3.83;;;10.30;99.90;;;;;;5017350;28;20047;-81
2023/03/21 00:36:20;;;;;;;13.98;4.18;;;10.30;99.90;;;;;;5016364;28;20048;-80
2023/03/21 00:38:47;;;;;;;13.77;4.90;;;10.30;99.90;;;;;;5017458;28;20150;-80
2023/03/21 00:41:13;;;;;;;11.18;4.18;;;10.30;99.90;;;;;;5000955;28;20431;-80
2023/03/21 00:43:54;;;;;;;13.13;4.13;;;10.30;99.90;;;;;;5034012;28;20552;-80
2023/03/21 00:46:21;;;;;;;14.77;4.05;;;10.30;99.90;;;;;;5000956;28;20052;-80
2023/03/21 00:48:50;;;;;;;17.33;4.50;;;10.30;99.90;;;;;;5016963;28;20051;-81
2023/03/21 00:51:20;;;;;;;14.75;4.18;;;10.30;99.90;;;;;;5033184;28;20064;-81
2023/03/21 00:53:46;;;;;;;19.13;4.43;;;10.30;99.90;;;;;;5017020;28;20046;-80
2023/03/21 00:56:13;;;;;;;13.23;4.18;;;10.30;99.90;;;;;;5050144;28;20110;-81
2023/03/21 00:58:40;;;;;;;16.10;3.78;;;10.20;99.90;;;;;;5056276;28;20051;-80
2023/03/21 01:01:08;;;;;;;15.45;4.43;;;10.20;99.90;;;;;;5074092;28;20139;-81
2023/03/21 01:03:41;;;;;;;16.42;4.10;;;10.20;99.90;;;;;;5039145;28;20055;-81
2023/03/21 01:06:12;;;;;;;18.98;4.53;;;10.20;99.90;;;;;;5056418;28;20059;-80
2023/03/21 01:08:39;;;;;;;14.32;4.18;;;10.20;99.90;;;;;;5073665;28;20537;-80
2023/03/21 01:11:21;;;;;;;24.55;4.75;;;10.20;99.90;;;;;;5056582;28;20052;-80
2023/03/21 01:13:48;;;;;;;14.63;4.13;;;10.20;99.90;;;;;;5056105;28;20463;-80
2023/03/21 01:16:35;;;;;;;13.88;4.60;;;10.20;99.90;;;;;;5059290;28;20041;-80
2023/03/21 01:19:01;;;;;;;18.73;5.07;;;10.20;99.90;;;;;;5078364;28;20037;-80
2023/03/21 01:21:32;;;;;;;14.10;4.18;;;10.20;99.90;;;;;;5060357;28;20049;-80
2023/03/21 01:24:00;;;;;;;12.88;3.97;;;10.20;99.90;;;;;;5059452;28;20041;-80
2023/03/21 01:26:27;;;;;;;19.52;4.25;;;10.20;99.90;;;;;;5078201;28;20370;-80
2023/03/21 01:28:54;;;;;;;16.42;5.03;;;10.20;99.90;;;;;;5077172;28;20041;-80
2023/03/21 01:31:20;;;;;;;19.77;5.25;;;10.20;99.90;;;;;;5060866;28;20041;-80
2023/03/21 01:33:47;;;;;;;14.30;4.32;;;10.10;99.90;;;;;;5060247;28;20132;-80
2023/03/21 01:36:15;;;;;;;10.25;4.22;;;10.10;99.90;;;;;;5059361;28;20102;-81
2023/03/21 01:38:42;;;;;;;10.80;4.78;;;10.20;99.90;;;;;;5060462;28;20071;-80
2023/03/21 01:41:10;;;;;;;13.75;4.65;;;10.20;99.90;;;;;;5060291;28;20051;-80
2023/03/21 01:43:46;;;;;;;17.65;4.57;;;10.20;99.90;;;;;;5073588;28;20359;-80
2023/03/21 01:46:13;;;;;;;18.30;5.20;;;10.20;99.90;;;;;;5097342;28;20105;-80
2023/03/21 01:49:02;;;;;;;22.55;5.35;;;10.20;99.90;;;;;;5068346;28;20056;-80
2023/03/21 01:51:29;;;;;;;17.13;5.15;;;10.20;99.90;;;;;;5097707;28;20055;-80
2023/03/21 01:53:57;;;;;;;18.23;4.85;;;10.20;99.90;;;;;;5096792;28;20130;-80
2023/03/21 01:56:25;;;;;;;18.27;4.80;;;10.10;99.90;;;;;;5069399;28;20050;-80
2023/03/21 01:59:01;;;;;;;12.35;4.78;;;10.10;99.90;;;;;;5077909;28;20115;-80
2023/03/21 02:01:49;;;;;;;18.88;5.07;;;10.10;99.90;;;;;;5061839;28;20049;-80
2023/03/21 02:04:20;;;;;;;17.35;5.18;;;10.10;99.90;;;;;;5059694;28;20045;-80
2023/03/21 02:06:50;;;;;;;18.85;5.28;;;10.10;99.90;;;;;;5060446;28;20037;-80
2023/03/21 02:09:35;;;;;;;13.73;4.35;;;10.10;99.90;;;;;;5075550;28;20041;-80
2023/03/21 02:12:06;;;;;;;16.30;4.50;;;10.10;99.90;;;;;;5075961;28;20048;-80
2023/03/21 02:14:33;;;;;;;19.88;4.88;;;10.00;99.90;;;;;;5076031;28;20493;-80
2023/03/21 02:17:06;;;;;;;13.33;4.93;;;10.00;99.90;;;;;;5075571;28;20044;-80
2023/03/21 02:19:34;;;;;;;17.23;4.43;;;10.00;99.90;;;;;;5059604;28;20483;-80
2023/03/21 02:22:18;;;;;;;15.23;4.43;;;10.00;99.90;;;;;;5075348;28;20059;-80
2023/03/21 02:24:46;;;;;;;13.25;4.63;;;10.00;99.90;;;;;;5075894;28;20041;-80
2023/03/21 02:27:26;;;;;;;20.27;4.75;;;10.00;99.90;;;;;;5074964;28;20131;-80
2023/03/21 02:29:57;;;;;;;13.60;4.22;;;10.00;99.90;;;;;;5059398;28;20526;-80
2023/03/21 02:32:24;;;;;;;18.65;4.32;;;10.00;99.90;;;;;;5075838;28;20060;-80
2023/03/21 02:35:05;;;;;;;17.05;4.90;;;10.00;99.90;;;;;;5074887;28;20049;-80
2023/03/21 02:37:33;;;;;;;16.45;5.07;;;9.90;99.90;;;;;;5075379;28;20113;-80
2023/03/21 02:40:10;;;;;;;14.05;4.50;;;9.90;99.90;;;;;;5060095;28;20056;-80
2023/03/21 02:42:37;;;;;;;13.93;4.60;;;9.90;99.90;;;;;;5074386;28;20076;-80
2023/03/21 02:45:04;;;;;;;13.35;4.00;;;9.90;99.90;;;;;;5056879;28;20067;-80
2023/03/21 02:47:34;;;;;;;19.55;4.07;;;9.90;99.90;;;;;;5038997;28;20111;-79
2023/03/21 02:50:03;;;;;;;15.18;4.95;;;9.90;99.90;;;;;;5038138;28;20478;-79
2023/03/21 02:52:30;;;;;;;17.58;4.65;;;9.90;99.90;;;;;;5056360;28;20403;-79
2023/03/21 02:55:12;;;;;;;20.42;4.35;;;9.90;99.90;;;;;;5037999;28;20041;-79
2023/03/21 03:00:43;;;;;;;13.05;3.95;;;9.90;99.90;;;;;;5035322;28;20480;-79
2023/03/21 03:03:13;;;;;;;13.70;4.07;;;9.90;99.90;;;;;;5017781;28;20053;-79
2023/03/21 03:05:58;;;;;;;14.25;4.72;;;9.90;99.90;;;;;;5018920;28;20380;-79
2023/03/21 03:08:25;;;;;;;14.07;4.60;;;9.90;99.90;;;;;;5018230;28;20407;-79
2023/03/21 03:11:06;;;;;;;14.85;4.47;;;9.90;99.90;;;;;;5018416;28;20045;-80
2023/03/21 03:13:33;;;;;;;20.08;4.78;;;9.90;99.90;;;;;;5034926;28;20464;-79
2023/03/21 03:16:00;;;;;;;14.85;3.45;;;9.90;99.90;;;;;;5017799;28;20042;-79
2023/03/21 03:18:27;;;;;;;17.17;4.32;;;9.90;99.90;;;;;;5018437;28;20372;-79
2023/03/21 03:20:54;;;;;;;15.98;4.60;;;9.90;99.90;;;;;;5035059;28;20041;-79
2023/03/21 03:23:22;;;;;;;17.60;3.80;;;9.90;99.90;;;;;;5017484;28;20509;-79
2023/03/21 03:25:49;;;;;;;18.60;4.22;;;9.90;99.90;;;;;;5018144;28;20418;-79
2023/03/21 03:28:16;;;;;;;14.70;4.20;;;9.90;99.90;;;;;;5018596;28;20171;-79
2023/03/21 03:30:43;;;;;;;11.65;3.72;;;9.90;99.90;;;;;;5017837;28;20071;-79
2023/03/21 03:33:29;;;;;;;10.85;3.10;;;9.90;99.90;;;;;;5034673;28;20055;-79
2023/03/21 03:35:55;;;;;;;11.98;3.83;;;9.90;99.90;;;;;;5034704;28;20045;-79
2023/03/21 03:38:33;;;;;;;18.88;3.55;;;9.80;99.90;;;;;;5034761;28;20065;-79
2023/03/21 03:41:00;;;;;;;11.40;3.72;;;9.80;99.90;;;;;;5018007;28;20060;-80
2023/03/21 03:43:36;;;;;;;11.88;3.45;;;9.80;99.90;;;;;;5028779;28;20092;-79
2023/03/21 03:46:03;;;;;;;7.93;2.85;;;9.70;99.90;;;;;;5055556;28;20119;-79
2023/03/21 03:48:30;;;;;;;16.80;3.50;;;9.70;99.90;;;;;;5053445;28;20144;-79
2023/03/21 03:51:01;;;;;;;10.32;3.20;;;9.70;99.90;;;;;;5071142;28;20053;-79
2023/03/21 03:53:44;;;;;;;14.02;3.35;;;9.60;99.90;;;;;;5071125;28;20041;-79
2023/03/21 03:56:11;;;;;;;10.57;3.10;;;9.60;99.90;;;;;;5053163;28;20098;-79
2023/03/21 03:58:39;;;;;;;14.93;3.30;;;9.60;99.90;;;;;;5054268;28;20041;-80
2023/03/21 04:01:14;;;;;;;11.20;3.03;;;9.60;99.90;;;;;;5069303;28;20044;-80
2023/03/21 04:03:43;;;;;;;14.05;3.45;;;9.60;99.90;;;;;;5053767;28;20068;-80
2023/03/21 04:06:16;;;;;;;12.85;3.03;;;9.50;99.90;;;;;;5070633;28;20052;-80
2023/03/21 04:08:43;;;;;;;14.88;3.97;;;9.50;99.90;;;;;;5053228;28;20045;-80
2023/03/21 04:11:10;;;;;;;15.57;2.88;;;9.50;99.90;;;;;;5070262;28;20045;-80
2023/03/21 04:13:40;;;;;;;16.92;3.63;;;9.50;99.90;;;;;;5053666;28;20040;-80
2023/03/21 04:16:10;;;;;;;11.30;2.90;;;9.50;99.90;;;;;;5053060;28;20045;-80
2023/03/21 04:18:38;;;;;;;11.35;3.60;;;9.60;99.90;;;;;;5070324;28;20041;-80
2023/03/21 04:21:06;;;;;;;12.77;2.85;;;9.60;99.90;;;;;;5070456;28;20370;-80
2023/03/21 04:23:34;;;;;;;17.13;3.08;;;9.60;99.90;;;;;;5069646;28;20067;-80
2023/03/21 04:26:01;;;;;;;10.57;3.30;;;9.60;99.90;;;;;;5053351;28;20041;-80
2023/03/21 04:28:35;;;;;;;11.93;2.80;;;9.60;99.90;;;;;;5069655;28;20140;-80
2023/03/21 04:31:25;;;;;;;11.18;3.28;;;9.60;99.90;;;;;;5054554;28;20048;-80
2023/03/21 04:34:11;;;;;;;12.35;3.15;;;9.60;99.90;;;;;;5053255;28;20045;-80
2023/03/21 04:36:45;;;;;;;13.70;3.22;;;9.50;99.90;;;;;;5052903;28;20047;-80
2023/03/21 04:39:12;;;;;;;10.20;2.72;;;9.50;99.90;;;;;;5070917;28;20049;-79
2023/03/21 04:41:41;;;;;;;13.25;3.15;;;9.50;99.90;;;;;;5069237;28;20352;-80
2023/03/21 04:44:07;;;;;;;11.48;2.90;;;9.50;99.90;;;;;;5069947;28;20060;-80
2023/03/21 04:46:35;;;;;;;11.43;3.33;;;9.50;99.90;;;;;;5053607;28;20045;-80
2023/03/21 04:49:02;;;;;;;17.38;2.80;;;9.50;99.90;;;;;;5069000;28;20115;-80
2023/03/21 04:51:29;;;;;;;10.40;2.83;;;9.50;99.90;;;;;;5053155;28;20037;-79
2023/03/21 04:53:59;;;;;;;8.90;2.50;;;9.50;99.90;;;;;;5053177;28;20447;-80
2023/03/21 04:56:30;;;;;;;16.85;2.85;;;9.50;99.90;;;;;;5069081;28;20040;-80
2023/03/21 04:58:57;;;;;;;9.18;2.17;;;9.40;99.90;;;;;;5070066;28;20045;-79
2023/03/21 05:01:24;;;;;;;13.07;2.60;;;9.40;99.90;;;;;;5054148;28;20055;-80
2023/03/21 05:03:51;;;;;;;10.68;2.33;;;9.40;99.90;;;;;;5051748;28;20049;-80
2023/03/21 05:06:19;;;;;;;15.85;2.38;;;9.40;99.90;;;;;;5054099;28;20118;-80
2023/03/21 05:08:47;;;;;;;10.93;2.40;;;9.40;99.90;;;;;;5068606;28;20438;-80
2023/03/21 05:11:15;;;;;;;9.55;2.33;;;9.40;99.90;;;;;;5069616;28;20047;-80
2023/03/21 05:13:41;;;;;;;12.23;2.45;;;9.40;99.90;;;;;;5069539;28;20463;-80
2023/03/21 05:16:10;;;;;;;11.82;2.33;;;9.40;99.90;;;;;;5052310;28;20368;-79
2023/03/21 05:18:37;;;;;;;7.97;2.03;;;9.40;99.90;;;;;;5053086;28;20055;-80
2023/03/21 05:21:11;;;;;;;17.13;2.30;;;9.40;99.90;;;;;;5069895;28;20041;-80
2023/03/21 05:23:39;;;;;;;14.32;2.63;;;9.40;99.90;;;;;;5068588;28;20140;-80
2023/03/21 05:26:07;;;;;;;11.45;2.53;;;9.40;99.90;;;;;;5087615;28;20041;-80
2023/03/21 05:28:40;;;;;;;7.47;2.22;;;9.40;99.90;;;;;;5072281;28;20044;-80
2023/03/21 05:31:07;;;;;;;13.90;2.35;;;9.40;99.90;;;;;;5056568;28;20386;-80
2023/03/21 05:33:34;;;;;;;11.52;3.15;;;9.30;99.90;;;;;;5072700;28;20524;-80
2023/03/21 05:36:01;;;;;;;13.20;2.22;;;9.30;99.90;;;;;;5072138;28;20547;-80
2023/03/21 05:38:30;;;;;;;6.00;1.98;;;9.20;99.90;;;;;;5056833;28;20037;-79
2023/03/21 05:40:57;;;;;;;12.02;2.40;;;9.20;99.90;;;;;;5072786;28;20049;-80
2023/03/21 05:43:24;;;;;;;7.88;2.08;;;9.20;99.90;;;;;;5071855;28;20144;-80
2023/03/21 05:45:51;;;;;;;10.27;2.10;;;9.10;99.90;;;;;;5072980;28;20044;-80
2023/03/21 05:48:18;;;;;;;8.75;2.17;;;9.10;99.90;;;;;;5055730;28;20068;-80
2023/03/21 05:50:58;;;;;;;14.00;2.65;;;9.10;99.90;;;;;;5072940;28;20056;-80
2023/03/21 05:53:25;;;;;;;14.10;2.13;;;9.10;99.90;;;;;;5072541;28;20041;-79
2023/03/21 05:55:53;;;;;;;16.35;2.38;;;9.00;99.90;;;;;;5072083;28;20076;-80
2023/03/21 05:58:38;;;;;;;8.90;2.20;;;9.10;99.90;;;;;;5074137;28;20106;-80
2023/03/21 06:01:05;;;;;;;8.60;2.20;;;9.10;99.90;;;;;;5073622;28;20094;-80
2023/03/21 06:03:34;;;;;;;11.75;2.08;;;9.10;99.90;;;;;;5074874;28;20044;-80
2023/03/21 06:06:05;;;;;;;11.25;2.17;;;9.10;99.90;;;;;;5060266;28;20071;-80
2023/03/21 06:08:37;;;;;;;12.23;2.28;;;9.10;99.90;;;;;;5059584;28;20091;-80
2023/03/21 06:11:04;;;;;;;13.43;2.25;;;9.10;99.90;;;;;;5076320;28;20051;-80
2023/03/21 06:13:33;;;;;;;8.52;2.28;;;9.10;99.90;;;;;;5076209;28;20127;-80
2023/03/21 06:18:46;;;;;;;6.75;2.30;;;9.10;99.90;;;;;;5076296;28;20040;-80
2023/03/21 06:21:27;;;;;;;7.25;2.08;;;9.20;99.90;;;;;;5076121;28;20036;-80
2023/03/21 06:23:53;;;;;;;11.07;2.47;;;9.20;99.90;;;;;;5058139;28;20052;-80
2023/03/21 06:26:22;;;;;;;10.73;2.50;;;9.20;99.90;;;;;;5076059;28;20356;-81
2023/03/21 06:28:50;;;;;;;7.63;2.22;;;9.20;99.90;;;;;;5075222;28;20079;-81
2023/03/21 06:31:17;;;;;;;11.23;2.72;;;9.20;99.90;;;;;;5075539;28;20036;-81
2023/03/21 06:33:44;;;;;;;8.73;2.10;;;9.20;99.90;;;;;;5059088;28;20441;-81
2023/03/21 06:36:11;;;;;;;9.57;2.20;;;9.30;99.90;;;;;;5075837;28;20462;-81
2023/03/21 06:38:38;;;;;;;10.35;2.33;;;9.30;99.90;;;;;;5075710;28;20131;-81
2023/03/21 06:41:04;;;;;;;10.95;2.58;;;9.30;99.90;;;;;;5059130;28;20061;-81
2023/03/21 06:43:38;;;;;;;10.43;2.65;;;9.30;99.90;;;;;;5059015;28;20429;-82
2023/03/21 06:46:05;;;;;;;8.50;2.63;;;9.30;99.90;;;;;;5076457;28;20459;-81
2023/03/21 06:48:32;;;;;;;7.15;2.30;;;9.30;99.90;;;;;;5075090;28;20077;-81
2023/03/21 06:50:59;;;;;;;15.35;2.47;;;9.30;99.90;;;;;;5075586;28;20047;-81
2023/03/21 06:53:28;;;;;;;6.43;1.88;;;9.30;99.90;;;;;;5075197;28;20467;-81
2023/03/21 06:56:14;;;;;;;9.35;2.17;;;9.30;99.90;;;;;;5083423;28;20054;-81
2023/03/21 06:58:42;;;;;;;6.60;2.40;;;9.30;99.90;;;;;;5095922;28;20040;-81
2023/03/21 07:01:18;;;;;;;9.43;1.90;;;9.40;99.90;;;;;;5080205;28;20462;-81
2023/03/21 07:03:58;;;;;;;6.38;2.13;;;9.40;99.90;;;;;;5094770;28;20063;-81
2023/03/21 07:06:27;;;;;;;11.80;2.40;;;9.40;99.90;;;;;;5095751;28;20083;-81
2023/03/21 07:08:54;;;;;;;6.72;2.53;;;9.40;99.90;;;;;;5094379;28;20101;-82
2023/03/21 07:11:22;;;;;;;9.93;2.72;;;9.50;99.90;;;;;;5078736;28;20063;-81
2023/03/21 07:13:49;;;;;;;12.35;2.70;;;9.50;99.90;;;;;;5094818;28;20036;-81
2023/03/21 07:16:16;;;;;;;12.10;2.78;;;9.60;99.90;;;;;;5094231;28;20044;-82
2023/03/21 07:18:43;;;;;;;7.60;2.42;;;9.60;99.90;;;;;;5095395;28;20032;-81
2023/03/21 07:21:10;;;;;;;6.82;2.03;;;9.70;99.90;;;;;;5095242;28;20048;-81
2023/03/21 07:23:38;;;;;;;10.27;2.42;;;9.70;99.90;;;;;;5077470;28;20040;-82
2023/03/21 07:26:07;;;;;;;7.15;2.00;;;9.70;99.90;;;;;;5078350;28;20142;-81
2023/03/21 07:28:34;;;;;;;6.07;1.98;;;9.70;99.90;;;;;;5095368;28;20366;-81
2023/03/21 07:31:01;;;;;;;7.50;2.00;;;9.80;99.90;;;;;;5095651;28;20079;-81
2023/03/21 07:33:28;;;;;;;6.55;2.03;;;9.80;99.90;;;;;;5094745;28;20044;-81
2023/03/21 07:35:59;;;;;;;7.40;2.10;;;9.80;99.90;;;;;;5094169;28;20051;-81
2023/03/21 07:38:26;;;;;;;5.78;2.28;;;9.80;99.90;;;;;;5094643;28;20051;-82
2023/03/21 07:40:52;;;;;;;8.95;2.10;;;9.80;99.90;;;;;;5095786;28;20039;-81
2023/03/21 07:43:19;;;;;;;8.27;2.20;;;9.80;99.90;;;;;;5076900;28;20444;-81
2023/03/21 07:45:52;;;;;;;7.37;1.97;;;9.80;99.90;;;;;;5078532;28;20048;-81
2023/03/21 07:48:20;;;;;;;5.03;1.77;;;9.80;99.90;;;;;;5095035;28;20773;-82
2023/03/21 07:50:47;;;;;;;10.30;2.15;;;9.80;99.90;;;;;;5094636;28;20093;-82
2023/03/21 07:53:13;;;;;;;7.47;2.15;;;9.80;99.90;;;;;;5093943;28;20052;-82
2023/03/21 07:55:40;;;;;;;5.85;2.00;;;9.80;99.90;;;;;;5076873;28;20055;-81
2023/03/21 07:58:07;;;;;;;5.80;1.75;;;9.90;99.90;;;;;;5095893;28;20040;-81
2023/03/21 08:00:33;;;;;;;8.20;2.63;;;9.90;99.90;;;;;;5094368;28;20058;-81
2023/03/21 08:03:00;;;;;;;6.03;2.00;;;10.00;99.90;;;;;;5093465;28;20050;-81
2023/03/21 08:05:27;;;;;;;8.13;2.10;;;10.00;99.90;;;;;;5095210;28;20462;-81
2023/03/21 08:07:53;;;;;;;7.68;2.13;;;10.00;99.90;;;;;;5095016;28;20044;-81
2023/03/21 08:10:20;;;;;;;4.82;1.73;;;10.00;99.90;;;;;;5094543;28;20047;-81
2023/03/21 08:12:47;;;;;;;6.05;1.60;;;9.90;99.90;;;;;;5095087;28;20374;-81
2023/03/21 08:15:13;;;;;;;3.58;1.48;;;9.90;99.90;;;;;;5094290;28;20036;-80
2023/03/21 08:20:28;;;;;;;7.43;1.88;;;9.90;99.90;;;;;;5095301;28;20070;-81
2023/03/21 08:22:55;;;;;;;6.55;2.47;;;10.00;99.90;;;;;;5092804;28;20048;-81
2023/03/21 08:25:21;;;;;;;7.28;2.67;;;10.10;99.90;;;;;;5094559;28;20036;-81
2023/03/21 08:27:50;;;;;;;13.25;2.55;;;10.20;99.90;;;;;;5094028;28;20042;-81
2023/03/21 08:30:17;;;;;;;7.90;2.13;;;10.30;99.90;;;;;;5093918;28;20055;-81
2023/03/21 08:32:43;;;;;;;8.85;2.13;;;10.30;99.90;;;;;;5093796;28;20413;-81
2023/03/21 08:35:10;;;;;;;12.15;4.32;;;10.30;99.90;;;;;;5094249;28;20111;-83
2023/03/21 08:37:38;;;;;;;7.25;2.35;;;10.30;99.90;;;;;;5058735;28;20052;-83
2023/03/21 08:40:07;;;;;;;8.27;2.10;;;10.40;99.90;;;;;;5057137;28;20051;-81
2023/03/21 08:42:34;;;;;;;9.43;2.60;;;10.50;99.90;;;;;;5073534;28;20158;-82
2023/03/21 08:45:02;;;;;;;11.77;2.50;;;10.50;99.90;;;;;;5056634;28;20076;-81
2023/03/21 08:50:16;;;;;;;8.45;2.22;;;10.50;99.90;;;;;;5049333;28;20136;-82
2023/03/21 08:52:48;;;;;;;11.45;2.72;;;10.60;99.90;;;;;;5036482;28;20460;-83
2023/03/21 08:55:15;;;;;;;11.98;2.65;;;10.60;99.90;;;;;;5052719;28;20051;-82
2023/03/21 08:57:42;;;;;;;7.30;2.00;;;10.60;99.90;;;;;;5073936;28;20356;-83
2023/03/21 09:00:15;;;;;;;8.30;2.47;;;10.60;99.90;;;;;;5073233;28;20045;-82
2023/03/21 09:02:42;;;;;;;9.88;2.25;;;10.70;99.90;;;;;;5072142;28;20450;-83
2023/03/21 09:05:10;;;;;;;9.05;2.45;;;10.70;99.90;;;;;;5056631;28;20049;-83
2023/03/21 09:07:38;;;;;;;11.88;2.00;;;10.80;99.90;;;;;;5073254;28;20052;-82
2023/03/21 09:10:05;;;;;;;9.27;2.20;;;10.90;99.90;;;;;;5072474;28;20044;-82
2023/03/21 09:12:46;;;;;;;12.00;1.90;;;11.00;99.90;;;;;;5073445;28;20128;-82
2023/03/21 09:15:13;;;;;;;12.52;2.00;;;11.10;99.90;;;;;;5073214;28;20098;-81
2023/03/21 09:17:42;;;;;;;14.50;2.38;;;11.10;99.90;;;;;;5072986;28;20049;-83
2023/03/21 09:20:10;;;;;;;9.63;2.13;;;11.20;99.90;;;;;;5074291;28;20360;-82
2023/03/21 09:22:37;;;;;;;9.55;2.03;;;11.40;99.90;;;;;;5072876;28;20040;-82
2023/03/21 09:25:07;;;;;;;10.10;2.10;;;11.70;99.90;;;;;;5073958;28;20367;-83
2023/03/21 09:27:35;;;;;;;7.72;1.75;;;11.90;99.90;;;;;;5073238;28;20055;-82
2023/03/21 09:30:06;;;;;;;9.85;2.45;;;12.00;99.90;;;;;;5055606;28;20051;-83
2023/03/21 09:32:36;;;;;;;7.75;1.95;;;12.20;99.90;;;;;;5072795;28;20386;-85
2023/03/21 09:35:04;;;;;;;6.30;1.70;;;12.40;99.90;;;;;;5072414;28;20127;-81
2023/03/21 09:40:19;;;;;;;9.38;1.48;;;12.70;99.90;;;;;;5076635;28;20056;-82
2023/03/21 09:42:45;;;;;;;10.52;1.65;;;12.70;99.90;;;;;;5075872;28;20048;-82
2023/03/21 09:45:13;;;;;;;7.57;1.60;;;12.60;99.90;;;;;;5076867;28;20036;-81
2023/03/21 09:47:48;;;;;;;7.95;1.55;;;12.50;99.90;;;;;;5057699;28;20048;-82
2023/03/21 09:50:16;;;;;;;7.32;1.42;;;12.50;99.90;;;;;;5048360;28;20041;-83
2023/03/21 09:52:46;;;;;;;11.25;1.90;;;12.50;99.90;;;;;;5059648;28;20040;-84
2023/03/21 09:55:18;;;;;;;10.48;1.60;;;12.60;99.90;;;;;;5055698;28;20096;-82
2023/03/21 09:57:46;;;;;;;7.57;1.77;;;12.70;99.90;;;;;;5056227;28;20128;-84
2023/03/21 10:00:18;;;;;;;10.55;2.08;;;12.70;99.90;;;;;;5040326;28;20374;-81
2023/03/21 10:02:45;;;;;;;6.65;1.67;;;12.90;99.90;;;;;;5062453;28;20386;-82
2023/03/21 10:05:13;;;;;;;8.13;1.40;;;13.00;99.90;;;;;;5097680;28;20047;-83
2023/03/21 10:07:41;;;;;;;5.03;1.35;;;13.10;99.90;;;;;;5096000;28;20492;-82
2023/03/21 10:10:08;;;;;;;15.55;1.80;;;13.20;99.90;;;;;;5096191;28;20067;-82
2023/03/21 10:12:34;;;;;;;7.50;1.67;;;13.30;99.90;;;;;;5095774;28;20048;-82
2023/03/21 10:15:04;;;;;;;7.70;1.60;;;13.30;99.90;;;;;;5095447;28;20059;-82
2023/03/21 10:17:37;;;;;;;9.93;1.73;;;13.30;99.90;;;;;;5087950;28;20040;-83
2023/03/21 10:20:09;;;;;;;9.57;1.50;;;13.10;99.90;;;;;;5075654;28;20041;-81
2023/03/21 10:22:37;;;;;;;4.03;1.38;;;13.00;99.90;;;;;;5075978;28;20046;-82
2023/03/21 10:25:04;;;;;;;7.97;1.48;;;13.00;99.90;;;;;;5076223;28;20037;-82
2023/03/21 10:27:32;;;;;;;5.75;1.27;;;12.90;99.90;;;;;;5076531;28;20047;-83
2023/03/21 10:29:59;;;;;;;3.70;1.15;;;12.80;99.90;;;;;;5054512;28;20052;-83
2023/03/21 10:32:26;;;;;;;5.60;1.23;;;12.80;99.90;;;;;;5079620;28;20375;-85
2023/03/21 10:35:02;;;;;;;3.40;1.10;;;12.70;99.90;;;;;;5055156;28;20037;-83
2023/03/21 10:37:35;;;;;;;5.45;1.40;;;12.60;99.90;;;;;;5055140;28;20072;-83
2023/03/21 10:40:02;;;;;;;6.00;1.20;;;12.60;99.90;;;;;;5056595;28;20456;-83
2023/03/21 10:42:32;;;;;;;4.15;1.10;;;12.70;99.90;;;;;;5054319;28;20032;-83
2023/03/21 10:44:59;;;;;;;4.78;1.08;;;12.80;99.90;;;;;;5054303;28;20387;-83
2023/03/21 10:47:26;;;;;;;4.43;1.10;;;13.00;99.90;;;;;;5041864;28;20595;-84
2023/03/21 10:49:53;;;;;;;4.65;1.10;;;13.10;99.90;;;;;;5053671;28;20048;-83
2023/03/21 10:52:33;;;;;;;4.05;1.20;;;13.20;99.90;;;;;;5062512;28;20452;-81
2023/03/21 10:55:02;;;;;;;6.68;1.55;;;13.20;99.90;;;;;;5054881;28;20535;-81
2023/03/21 10:57:43;;;;;;;8.02;1.30;;;13.10;99.90;;;;;;5061610;28;20344;-83
2023/03/21 11:00:15;;;;;;;4.65;1.35;;;13.00;99.90;;;;;;5076266;28;20041;-83
2023/03/21 11:02:42;;;;;;;4.95;1.17;;;13.00;99.90;;;;;;5070974;28;20077;-83
2023/03/21 11:05:09;;;;;;;4.93;1.42;;;13.00;99.90;;;;;;5055960;28;20399;-82
2023/03/21 11:07:36;;;;;;;8.00;1.40;;;12.90;99.90;;;;;;5038467;28;20055;-83
2023/03/21 11:10:03;;;;;;;4.55;1.55;;;12.90;99.90;;;;;;5037440;28;20053;-83
2023/03/21 11:12:29;;;;;;;5.82;1.27;;;12.90;99.90;;;;;;5037907;28;20040;-83
2023/03/21 11:14:56;;;;;;;10.77;1.50;;;12.90;99.90;;;;;;5038110;28;20040;-83
2023/03/21 11:17:23;;;;;;;5.60;1.48;;;12.90;99.90;;;;;;5053853;28;20379;-83
2023/03/21 11:19:49;;;;;;;7.82;1.30;;;12.90;99.90;;;;;;5054165;28;20379;-83
2023/03/21 11:22:16;;;;;;;8.48;1.40;;;13.10;99.90;;;;;;5070372;28;20487;-83
2023/03/21 11:24:43;;;;;;;6.53;1.75;;;13.20;99.90;;;;;;5071196;28;20044;-82
2023/03/21 11:27:09;;;;;;;4.85;1.17;;;13.50;99.90;;;;;;5070983;28;20053;-83
2023/03/21 11:29:37;;;;;;;8.82;1.70;;;13.70;99.90;;;;;;5037250;28;20561;-83
2023/03/21 11:32:04;;;;;;;7.32;1.63;;;14.00;99.90;;;;;;5070989;28;20490;-83
2023/03/21 11:34:31;;;;;;;5.72;1.38;;;14.30;99.90;;;;;;5037073;28;20037;-83
2023/03/21 11:36:58;;;;;;;7.68;1.45;;;14.30;99.90;;;;;;5036913;28;20048;-83
2023/03/21 11:39:24;;;;;;;8.32;1.63;;;14.40;99.90;;;;;;5054479;28;20132;-83
2023/03/21 11:41:51;;;;;;;7.18;1.30;;;14.40;99.90;;;;;;5036545;28;20045;-85
2023/03/21 11:44:18;;;;;;;7.97;1.50;;;14.30;99.90;;;;;;5036792;28;20056;-83
2023/03/21 11:46:44;;;;;;;8.07;1.50;;;14.20;99.90;;;;;;5071037;28;20041;-83
2023/03/21 11:49:11;;;;;;;32.35;5.57;;;14.40;99.90;;;;;;5035771;28;20048;-83
2023/03/21 11:51:38;;;;;;;8.45;1.75;;;14.40;99.90;;;;;;5054347;28;20102;-82
2023/03/21 11:54:05;;;;;;;6.03;1.33;;;14.30;99.90;;;;;;5037419;28;20037;-83
2023/03/21 11:56:32;;;;;;;8.43;1.55;;;14.30;99.90;;;;;;5063422;28;20056;-83
2023/03/21 11:59:00;;;;;;;9.27;1.63;;;14.00;99.90;;;;;;5074494;28;20047;-83
2023/03/21 12:01:27;;;;;;;9.30;1.88;;;13.90;99.90;;;;;;5073730;28;20076;-83
2023/03/21 12:03:54;;;;;;;7.20;1.70;;;13.80;99.90;;;;;;5055685;28;20110;-83
2023/03/21 12:06:21;;;;;;;9.38;1.48;;;13.80;99.90;;;;;;5074019;28;20040;-83
2023/03/21 12:08:48;;;;;;;6.95;1.77;;;13.60;99.90;;;;;;5073706;28;20047;-83
2023/03/21 12:11:15;;;;;;;7.72;1.55;;;13.50;99.90;;;;;;5073239;28;20059;-83
2023/03/21 12:13:42;;;;;;;6.68;1.52;;;13.40;99.90;;;;;;5074429;28;20047;-83
2023/03/21 12:16:08;;;;;;;12.48;2.47;;;13.40;99.90;;;;;;5072759;28;20041;-83
2023/03/21 12:18:35;;;;;;;9.18;1.63;;;13.40;99.90;;;;;;5057002;28;20044;-83
2023/03/21 12:21:02;;;;;;;7.88;1.30;;;13.30;99.90;;;;;;5057033;28;20071;-83
2023/03/21 12:23:28;;;;;;;6.57;1.42;;;13.20;99.90;;;;;;5055728;28;20036;-83
2023/03/21 12:25:56;;;;;;;8.02;1.63;;;13.10;99.90;;;;;;5073110;28;20048;-82
2023/03/21 12:28:23;;;;;;;7.93;1.80;;;13.10;99.90;;;;;;5073018;28;20068;-82
2023/03/21 12:30:58;;;;;;;5.47;1.48;;;13.20;99.90;;;;;;5073670;28;20044;-83
2023/03/21 12:33:25;;;;;;;7.07;1.55;;;13.30;99.90;;;;;;5072730;28;20110;-83
2023/03/21 12:35:52;;;;;;;6.47;1.77;;;13.30;99.90;;;;;;5055951;28;20451;-83
2023/03/21 12:38:18;;;;;;;5.68;1.33;;;13.40;99.90;;;;;;5073999;28;20070;-83
2023/03/21 12:40:45;;;;;;;16.85;2.05;;;13.30;99.90;;;;;;5072898;28;20036;-83
2023/03/21 12:43:12;;;;;;;10.93;2.08;;;13.30;99.90;;;;;;5055144;28;20467;-83
2023/03/21 12:45:38;;;;;;;7.18;1.90;;;13.20;99.90;;;;;;5073256;28;20101;-83
2023/03/21 12:48:13;;;;;;;8.05;2.03;;;13.30;99.90;;;;;;5073188;28;20411;-83
2023/03/21 12:50:42;;;;;;;8.25;1.70;;;13.20;99.90;;;;;;5055758;28;20036;-83
2023/03/21 12:53:09;;;;;;;14.00;2.08;;;13.20;99.90;;;;;;5072562;28;20387;-85
2023/03/21 12:55:42;;;;;;;7.25;1.40;;;13.30;99.90;;;;;;5055143;28;20399;-85
2023/03/21 12:58:11;;;;;;;9.70;1.63;;;13.20;99.90;;;;;;5056442;28;20059;-84
2023/03/21 13:00:38;;;;;;;10.15;1.98;;;13.20;99.90;;;;;;5056607;28;20103;-85
2023/03/21 13:03:08;;;;;;;7.60;1.45;;;13.30;99.90;;;;;;5055588;28;20139;-84
2023/03/21 13:05:35;;;;;;;11.23;1.40;;;13.40;99.90;;;;;;5073278;28;20059;-85
2023/03/21 13:08:04;;;;;;;7.05;1.50;;;13.30;99.90;;;;;;5073416;28;20047;-84
2023/03/21 13:10:31;;;;;;;10.00;1.75;;;13.40;99.90;;;;;;5054897;28;20451;-85